sensor_id;sensor_type;location;lat;lon;timestamp;P1;durP1;ratioP1;P2;durP2;ratioP2
42754;SDS011;28407;51.830;5.684;2023-08-06T00:00:23;1.70;;;1.30;;
42754;SDS011;28407;51.830;5.684;2023-08-06T00:02:23;2.00;;;1.40;;
42754;SDS011;28407;51.830;5.684;2023-08-06T00:04:24;2.40;;;1.52;;
42754;SDS011;28407;51.830;5.684;2023-08-06T00:06:25;1.80;;;1.20;;
42754;SDS011;28407;51.830;5.684;2023-08-06T00:08:25;2.92;;;1.63;;
42754;SDS011;28407;51.830;5.684;2023-08-06T00:10:26;2.03;;;1.40;;
42754;SDS011;28407;51.830;5.684;2023-08-06T00:12:27;1.80;;;1.40;;
42754;SDS011;28407;51.830;5.684;2023-08-06T00:14:27;3.47;;;1.90;;
42754;SDS011;28407;51.830;5.684;2023-08-06T00:16:28;1.65;;;1.42;;
42754;SDS011;28407;51.830;5.684;2023-08-06T00:18:29;3.03;;;1.55;;
42754;SDS011;28407;51.830;5.684;2023-08-06T00:20:29;2.03;;;1.52;;
42754;SDS011;28407;51.830;5.684;2023-08-06T00:22:31;2.33;;;1.60;;
42754;SDS011;28407;51.830;5.684;2023-08-06T00:24:32;2.47;;;1.48;;
42754;SDS011;28407;51.830;5.684;2023-08-06T00:26:34;1.95;;;1.40;;
42754;SDS011;28407;51.830;5.684;2023-08-06T00:28:34;2.08;;;1.50;;
42754;SDS011;28407;51.830;5.684;2023-08-06T00:30:35;4.25;;;1.80;;
42754;SDS011;28407;51.830;5.684;2023-08-06T00:32:36;2.78;;;1.60;;
42754;SDS011;28407;51.830;5.684;2023-08-06T00:34:37;1.63;;;1.10;;
42754;SDS011;28407;51.830;5.684;2023-08-06T00:36:37;1.52;;;1.17;;
42754;SDS011;28407;51.830;5.684;2023-08-06T00:38:38;2.08;;;1.25;;
42754;SDS011;28407;51.830;5.684;2023-08-06T00:40:39;2.20;;;1.33;;
42754;SDS011;28407;51.830;5.684;2023-08-06T00:42:39;2.03;;;1.40;;
42754;SDS011;28407;51.830;5.684;2023-08-06T00:44:40;2.00;;;1.60;;
42754;SDS011;28407;51.830;5.684;2023-08-06T00:46:42;3.20;;;1.40;;
42754;SDS011;28407;51.830;5.684;2023-08-06T00:48:44;1.90;;;1.38;;
42754;SDS011;28407;51.830;5.684;2023-08-06T00:50:45;1.67;;;1.45;;
42754;SDS011;28407;51.830;5.684;2023-08-06T00:52:46;1.73;;;1.40;;
42754;SDS011;28407;51.830;5.684;2023-08-06T00:54:46;1.92;;;1.50;;
42754;SDS011;28407;51.830;5.684;2023-08-06T00:56:47;2.67;;;1.75;;
42754;SDS011;28407;51.830;5.684;2023-08-06T00:58:48;2.65;;;1.50;;
42754;SDS011;28407;51.830;5.684;2023-08-06T01:00:49;1.95;;;1.42;;
42754;SDS011;28407;51.830;5.684;2023-08-06T01:02:49;3.33;;;1.35;;
42754;SDS011;28407;51.830;5.684;2023-08-06T01:04:50;3.78;;;1.48;;
42754;SDS011;28407;51.830;5.684;2023-08-06T01:09:11;1.20;;;1.05;;
42754;SDS011;28407;51.830;5.684;2023-08-06T01:11:38;2.45;;;1.38;;
42754;SDS011;28407;51.830;5.684;2023-08-06T01:14:02;2.67;;;1.23;;
42754;SDS011;28407;51.830;5.684;2023-08-06T01:16:10;1.58;;;1.20;;
42754;SDS011;28407;51.830;5.684;2023-08-06T01:18:11;4.22;;;1.63;;
42754;SDS011;28407;51.830;5.684;2023-08-06T01:20:13;3.05;;;1.60;;
42754;SDS011;28407;51.830;5.684;2023-08-06T01:22:13;2.17;;;1.40;;
42754;SDS011;28407;51.830;5.684;2023-08-06T01:24:14;3.13;;;1.70;;
42754;SDS011;28407;51.830;5.684;2023-08-06T01:26:30;2.40;;;2.00;;
42754;SDS011;28407;51.830;5.684;2023-08-06T01:28:40;2.17;;;1.48;;
42754;SDS011;28407;51.830;5.684;2023-08-06T01:30:52;3.33;;;1.70;;
42754;SDS011;28407;51.830;5.684;2023-08-06T01:33:00;3.15;;;1.52;;
42754;SDS011;28407;51.830;5.684;2023-08-06T01:35:04;2.03;;;1.52;;
42754;SDS011;28407;51.830;5.684;2023-08-06T01:37:06;2.05;;;1.50;;
42754;SDS011;28407;51.830;5.684;2023-08-06T01:39:08;1.88;;;1.50;;
42754;SDS011;28407;51.830;5.684;2023-08-06T01:41:09;1.83;;;1.42;;
42754;SDS011;28407;51.830;5.684;2023-08-06T01:43:10;2.27;;;1.60;;
42754;SDS011;28407;51.830;5.684;2023-08-06T01:45:11;1.92;;;1.50;;
42754;SDS011;28407;51.830;5.684;2023-08-06T01:47:12;4.13;;;1.55;;
42754;SDS011;28407;51.830;5.684;2023-08-06T01:49:12;1.90;;;1.30;;
42754;SDS011;28407;51.830;5.684;2023-08-06T01:51:13;1.60;;;1.45;;
42754;SDS011;28407;51.830;5.684;2023-08-06T01:53:14;2.67;;;1.60;;
42754;SDS011;28407;51.830;5.684;2023-08-06T01:55:14;4.65;;;2.20;;
42754;SDS011;28407;51.830;5.684;2023-08-06T01:57:15;2.55;;;1.58;;
42754;SDS011;28407;51.830;5.684;2023-08-06T01:59:16;2.35;;;1.95;;
42754;SDS011;28407;51.830;5.684;2023-08-06T02:01:17;1.83;;;1.63;;
42754;SDS011;28407;51.830;5.684;2023-08-06T02:03:18;2.47;;;1.55;;
42754;SDS011;28407;51.830;5.684;2023-08-06T02:05:22;2.35;;;1.60;;
42754;SDS011;28407;51.830;5.684;2023-08-06T02:07:23;1.90;;;1.35;;
42754;SDS011;28407;51.830;5.684;2023-08-06T02:09:24;1.98;;;1.42;;
42754;SDS011;28407;51.830;5.684;2023-08-06T02:13:27;1.92;;;1.42;;
42754;SDS011;28407;51.830;5.684;2023-08-06T02:15:28;3.70;;;1.70;;
42754;SDS011;28407;51.830;5.684;2023-08-06T02:17:29;3.88;;;1.50;;
42754;SDS011;28407;51.830;5.684;2023-08-06T02:19:29;2.67;;;2.05;;
42754;SDS011;28407;51.830;5.684;2023-08-06T02:21:30;2.25;;;1.73;;
42754;SDS011;28407;51.830;5.684;2023-08-06T02:23:31;2.10;;;1.60;;
42754;SDS011;28407;51.830;5.684;2023-08-06T02:25:31;2.47;;;1.70;;
42754;SDS011;28407;51.830;5.684;2023-08-06T02:27:33;2.45;;;1.80;;
42754;SDS011;28407;51.830;5.684;2023-08-06T02:29:34;2.65;;;1.48;;
42754;SDS011;28407;51.830;5.684;2023-08-06T02:31:35;1.65;;;1.45;;
42754;SDS011;28407;51.830;5.684;2023-08-06T02:33:35;2.35;;;1.80;;
42754;SDS011;28407;51.830;5.684;2023-08-06T02:35:36;2.25;;;1.55;;
42754;SDS011;28407;51.830;5.684;2023-08-06T02:37:37;3.00;;;2.03;;
42754;SDS011;28407;51.830;5.684;2023-08-06T02:39:37;2.05;;;1.55;;
42754;SDS011;28407;51.830;5.684;2023-08-06T02:41:41;2.80;;;1.70;;
42754;SDS011;28407;51.830;5.684;2023-08-06T02:43:41;2.53;;;2.00;;
42754;SDS011;28407;51.830;5.684;2023-08-06T02:45:42;3.33;;;1.77;;
42754;SDS011;28407;51.830;5.684;2023-08-06T02:47:43;2.30;;;1.77;;
42754;SDS011;28407;51.830;5.684;2023-08-06T02:49:44;2.45;;;1.58;;
42754;SDS011;28407;51.830;5.684;2023-08-06T02:51:45;2.13;;;1.60;;
42754;SDS011;28407;51.830;5.684;2023-08-06T02:53:47;2.78;;;1.98;;
42754;SDS011;28407;51.830;5.684;2023-08-06T02:55:50;2.85;;;1.98;;
42754;SDS011;28407;51.830;5.684;2023-08-06T02:57:55;3.17;;;1.75;;
42754;SDS011;28407;51.830;5.684;2023-08-06T02:59:56;3.10;;;2.40;;
42754;SDS011;28407;51.830;5.684;2023-08-06T03:01:58;2.70;;;1.67;;
42754;SDS011;28407;51.830;5.684;2023-08-06T03:04:07;2.92;;;2.28;;
42754;SDS011;28407;51.830;5.684;2023-08-06T03:06:13;3.97;;;1.83;;
42754;SDS011;28407;51.830;5.684;2023-08-06T03:08:19;2.95;;;2.00;;
42754;SDS011;28407;51.830;5.684;2023-08-06T03:10:23;3.00;;;1.80;;
42754;SDS011;28407;51.830;5.684;2023-08-06T03:12:26;2.60;;;1.85;;
42754;SDS011;28407;51.830;5.684;2023-08-06T03:14:27;3.85;;;2.13;;
42754;SDS011;28407;51.830;5.684;2023-08-06T03:16:28;3.25;;;2.03;;
42754;SDS011;28407;51.830;5.684;2023-08-06T03:18:28;3.08;;;2.35;;
42754;SDS011;28407;51.830;5.684;2023-08-06T03:20:32;2.95;;;2.10;;
42754;SDS011;28407;51.830;5.684;2023-08-06T03:22:33;2.60;;;2.05;;
42754;SDS011;28407;51.830;5.684;2023-08-06T03:24:33;3.45;;;2.50;;
42754;SDS011;28407;51.830;5.684;2023-08-06T03:26:34;3.25;;;2.38;;
42754;SDS011;28407;51.830;5.684;2023-08-06T03:28:36;4.45;;;3.05;;
42754;SDS011;28407;51.830;5.684;2023-08-06T03:30:37;3.47;;;2.20;;
42754;SDS011;28407;51.830;5.684;2023-08-06T03:32:38;3.45;;;2.45;;
42754;SDS011;28407;51.830;5.684;2023-08-06T03:34:39;3.87;;;2.80;;
42754;SDS011;28407;51.830;5.684;2023-08-06T03:36:40;4.90;;;2.70;;
42754;SDS011;28407;51.830;5.684;2023-08-06T03:38:41;4.25;;;3.00;;
42754;SDS011;28407;51.830;5.684;2023-08-06T03:42:44;5.38;;;2.90;;
42754;SDS011;28407;51.830;5.684;2023-08-06T03:44:44;3.08;;;2.45;;
42754;SDS011;28407;51.830;5.684;2023-08-06T03:46:45;4.03;;;3.20;;
42754;SDS011;28407;51.830;5.684;2023-08-06T03:48:46;3.00;;;2.53;;
42754;SDS011;28407;51.830;5.684;2023-08-06T03:50:46;4.03;;;2.88;;
42754;SDS011;28407;51.830;5.684;2023-08-06T03:52:49;3.63;;;2.72;;
42754;SDS011;28407;51.830;5.684;2023-08-06T03:54:50;3.38;;;2.67;;
42754;SDS011;28407;51.830;5.684;2023-08-06T03:56:50;3.80;;;2.80;;
42754;SDS011;28407;51.830;5.684;2023-08-06T03:58:51;3.53;;;2.75;;
42754;SDS011;28407;51.830;5.684;2023-08-06T04:00:59;3.95;;;3.15;;
42754;SDS011;28407;51.830;5.684;2023-08-06T04:03:02;3.80;;;3.08;;
42754;SDS011;28407;51.830;5.684;2023-08-06T04:05:03;4.43;;;3.08;;
42754;SDS011;28407;51.830;5.684;2023-08-06T04:07:04;4.63;;;3.15;;
42754;SDS011;28407;51.830;5.684;2023-08-06T04:09:05;4.05;;;3.20;;
42754;SDS011;28407;51.830;5.684;2023-08-06T04:11:05;5.65;;;3.20;;
42754;SDS011;28407;51.830;5.684;2023-08-06T04:13:06;4.30;;;3.50;;
42754;SDS011;28407;51.830;5.684;2023-08-06T04:15:07;3.67;;;2.95;;
42754;SDS011;28407;51.830;5.684;2023-08-06T04:17:08;4.63;;;3.10;;
42754;SDS011;28407;51.830;5.684;2023-08-06T04:19:09;4.05;;;3.10;;
42754;SDS011;28407;51.830;5.684;2023-08-06T04:23:12;5.40;;;3.13;;
42754;SDS011;28407;51.830;5.684;2023-08-06T04:25:13;4.60;;;2.92;;
42754;SDS011;28407;51.830;5.684;2023-08-06T04:27:14;5.53;;;2.80;;
42754;SDS011;28407;51.830;5.684;2023-08-06T04:29:17;4.50;;;3.08;;
42754;SDS011;28407;51.830;5.684;2023-08-06T04:31:18;4.15;;;3.13;;
42754;SDS011;28407;51.830;5.684;2023-08-06T04:33:20;4.38;;;3.45;;
42754;SDS011;28407;51.830;5.684;2023-08-06T04:35:21;5.28;;;3.38;;
42754;SDS011;28407;51.830;5.684;2023-08-06T04:37:22;4.10;;;3.10;;
42754;SDS011;28407;51.830;5.684;2023-08-06T04:39:23;4.57;;;3.00;;
42754;SDS011;28407;51.830;5.684;2023-08-06T04:41:24;3.92;;;2.88;;
42754;SDS011;28407;51.830;5.684;2023-08-06T04:43:24;4.15;;;3.13;;
42754;SDS011;28407;51.830;5.684;2023-08-06T04:45:25;4.25;;;3.00;;
42754;SDS011;28407;51.830;5.684;2023-08-06T04:47:26;4.20;;;3.33;;
42754;SDS011;28407;51.830;5.684;2023-08-06T04:49:26;5.30;;;4.00;;
42754;SDS011;28407;51.830;5.684;2023-08-06T04:51:27;6.53;;;3.80;;
42754;SDS011;28407;51.830;5.684;2023-08-06T04:53:28;4.60;;;3.30;;
42754;SDS011;28407;51.830;5.684;2023-08-06T04:55:28;3.75;;;3.05;;
42754;SDS011;28407;51.830;5.684;2023-08-06T04:57:29;4.13;;;3.08;;
42754;SDS011;28407;51.830;5.684;2023-08-06T04:59:30;4.18;;;3.50;;
42754;SDS011;28407;51.830;5.684;2023-08-06T05:01:30;5.78;;;3.53;;
42754;SDS011;28407;51.830;5.684;2023-08-06T05:03:31;4.25;;;3.20;;
42754;SDS011;28407;51.830;5.684;2023-08-06T05:05:32;4.55;;;3.50;;
42754;SDS011;28407;51.830;5.684;2023-08-06T05:07:33;6.07;;;3.63;;
42754;SDS011;28407;51.830;5.684;2023-08-06T05:09:33;6.75;;;4.32;;
42754;SDS011;28407;51.830;5.684;2023-08-06T05:11:34;5.55;;;3.70;;
42754;SDS011;28407;51.830;5.684;2023-08-06T05:13:35;5.28;;;3.75;;
42754;SDS011;28407;51.830;5.684;2023-08-06T05:15:35;4.63;;;3.47;;
42754;SDS011;28407;51.830;5.684;2023-08-06T05:17:36;4.97;;;3.90;;
42754;SDS011;28407;51.830;5.684;2023-08-06T05:19:37;7.78;;;4.28;;
42754;SDS011;28407;51.830;5.684;2023-08-06T05:21:37;7.07;;;4.30;;
42754;SDS011;28407;51.830;5.684;2023-08-06T05:23:38;4.80;;;3.72;;
42754;SDS011;28407;51.830;5.684;2023-08-06T05:25:39;6.75;;;4.03;;
42754;SDS011;28407;51.830;5.684;2023-08-06T05:27:39;7.38;;;4.82;;
42754;SDS011;28407;51.830;5.684;2023-08-06T05:29:40;5.35;;;4.13;;
42754;SDS011;28407;51.830;5.684;2023-08-06T05:31:41;5.15;;;4.30;;
42754;SDS011;28407;51.830;5.684;2023-08-06T05:33:41;6.43;;;4.13;;
42754;SDS011;28407;51.830;5.684;2023-08-06T05:35:42;6.35;;;4.55;;
42754;SDS011;28407;51.830;5.684;2023-08-06T05:37:43;5.63;;;4.20;;
42754;SDS011;28407;51.830;5.684;2023-08-06T05:39:43;7.97;;;5.45;;
42754;SDS011;28407;51.830;5.684;2023-08-06T05:41:44;6.60;;;4.43;;
42754;SDS011;28407;51.830;5.684;2023-08-06T05:43:45;5.20;;;4.60;;
42754;SDS011;28407;51.830;5.684;2023-08-06T05:45:46;5.78;;;4.78;;
42754;SDS011;28407;51.830;5.684;2023-08-06T05:47:49;6.65;;;4.85;;
42754;SDS011;28407;51.830;5.684;2023-08-06T05:49:50;6.68;;;5.07;;
42754;SDS011;28407;51.830;5.684;2023-08-06T05:51:51;5.50;;;4.57;;
42754;SDS011;28407;51.830;5.684;2023-08-06T05:55:54;4.97;;;4.03;;
42754;SDS011;28407;51.830;5.684;2023-08-06T05:57:54;5.07;;;3.90;;
42754;SDS011;28407;51.830;5.684;2023-08-06T05:59:55;5.05;;;4.10;;
42754;SDS011;28407;51.830;5.684;2023-08-06T06:01:56;5.75;;;4.80;;
42754;SDS011;28407;51.830;5.684;2023-08-06T06:03:56;6.03;;;4.85;;
42754;SDS011;28407;51.830;5.684;2023-08-06T06:05:57;6.95;;;4.93;;
42754;SDS011;28407;51.830;5.684;2023-08-06T06:08:00;6.03;;;4.85;;
42754;SDS011;28407;51.830;5.684;2023-08-06T06:10:01;5.35;;;4.20;;
42754;SDS011;28407;51.830;5.684;2023-08-06T06:12:02;5.32;;;4.53;;
42754;SDS011;28407;51.830;5.684;2023-08-06T06:14:03;6.72;;;4.90;;
42754;SDS011;28407;51.830;5.684;2023-08-06T06:16:04;6.15;;;5.15;;
42754;SDS011;28407;51.830;5.684;2023-08-06T06:18:05;6.40;;;5.57;;
42754;SDS011;28407;51.830;5.684;2023-08-06T06:20:06;6.07;;;4.25;;
42754;SDS011;28407;51.830;5.684;2023-08-06T06:22:07;5.93;;;4.37;;
42754;SDS011;28407;51.830;5.684;2023-08-06T06:24:08;5.45;;;4.45;;
42754;SDS011;28407;51.830;5.684;2023-08-06T06:26:08;5.07;;;4.10;;
42754;SDS011;28407;51.830;5.684;2023-08-06T06:28:10;5.88;;;4.55;;
42754;SDS011;28407;51.830;5.684;2023-08-06T06:30:10;6.57;;;5.15;;
42754;SDS011;28407;51.830;5.684;2023-08-06T06:32:12;5.88;;;4.55;;
42754;SDS011;28407;51.830;5.684;2023-08-06T06:34:13;6.13;;;4.93;;
42754;SDS011;28407;51.830;5.684;2023-08-06T06:36:13;6.70;;;4.57;;
42754;SDS011;28407;51.830;5.684;2023-08-06T06:38:14;5.85;;;4.82;;
42754;SDS011;28407;51.830;5.684;2023-08-06T06:40:15;6.22;;;5.43;;
42754;SDS011;28407;51.830;5.684;2023-08-06T06:42:16;6.13;;;5.13;;
42754;SDS011;28407;51.830;5.684;2023-08-06T06:44:20;5.45;;;4.95;;
42754;SDS011;28407;51.830;5.684;2023-08-06T06:46:21;6.03;;;4.28;;
42754;SDS011;28407;51.830;5.684;2023-08-06T06:48:21;9.48;;;5.05;;
42754;SDS011;28407;51.830;5.684;2023-08-06T06:50:22;5.75;;;4.32;;
42754;SDS011;28407;51.830;5.684;2023-08-06T06:52:23;5.97;;;4.57;;
42754;SDS011;28407;51.830;5.684;2023-08-06T06:54:23;5.80;;;4.32;;
42754;SDS011;28407;51.830;5.684;2023-08-06T06:56:24;4.97;;;3.88;;
42754;SDS011;28407;51.830;5.684;2023-08-06T06:58:25;7.07;;;5.10;;
42754;SDS011;28407;51.830;5.684;2023-08-06T07:00:25;6.38;;;4.57;;
42754;SDS011;28407;51.830;5.684;2023-08-06T07:02:26;6.28;;;4.55;;
42754;SDS011;28407;51.830;5.684;2023-08-06T07:04:27;6.20;;;4.53;;
42754;SDS011;28407;51.830;5.684;2023-08-06T07:06:27;5.50;;;4.68;;
42754;SDS011;28407;51.830;5.684;2023-08-06T07:08:28;4.80;;;4.13;;
42754;SDS011;28407;51.830;5.684;2023-08-06T07:10:29;5.50;;;4.55;;
42754;SDS011;28407;51.830;5.684;2023-08-06T07:12:30;6.47;;;4.43;;
42754;SDS011;28407;51.830;5.684;2023-08-06T07:14:30;5.35;;;4.47;;
42754;SDS011;28407;51.830;5.684;2023-08-06T07:16:31;5.50;;;3.97;;
42754;SDS011;28407;51.830;5.684;2023-08-06T07:18:32;5.05;;;4.13;;
42754;SDS011;28407;51.830;5.684;2023-08-06T07:20:32;5.72;;;4.40;;
42754;SDS011;28407;51.830;5.684;2023-08-06T07:22:34;6.22;;;4.20;;
42754;SDS011;28407;51.830;5.684;2023-08-06T07:24:35;5.30;;;4.78;;
42754;SDS011;28407;51.830;5.684;2023-08-06T07:26:36;5.45;;;4.25;;
42754;SDS011;28407;51.830;5.684;2023-08-06T07:28:37;5.90;;;4.47;;
42754;SDS011;28407;51.830;5.684;2023-08-06T07:30:40;6.20;;;4.88;;
42754;SDS011;28407;51.830;5.684;2023-08-06T07:32:42;6.63;;;5.05;;
42754;SDS011;28407;51.830;5.684;2023-08-06T07:34:42;6.43;;;5.07;;
42754;SDS011;28407;51.830;5.684;2023-08-06T07:36:46;7.40;;;4.57;;
42754;SDS011;28407;51.830;5.684;2023-08-06T07:38:47;6.20;;;5.55;;
42754;SDS011;28407;51.830;5.684;2023-08-06T07:40:51;7.00;;;5.65;;
42754;SDS011;28407;51.830;5.684;2023-08-06T07:42:52;5.75;;;5.05;;
42754;SDS011;28407;51.830;5.684;2023-08-06T07:44:55;8.88;;;5.40;;
42754;SDS011;28407;51.830;5.684;2023-08-06T07:46:58;7.00;;;5.55;;
42754;SDS011;28407;51.830;5.684;2023-08-06T07:48:58;6.03;;;5.43;;
42754;SDS011;28407;51.830;5.684;2023-08-06T07:50:59;6.97;;;5.60;;
42754;SDS011;28407;51.830;5.684;2023-08-06T07:53:00;7.00;;;6.30;;
42754;SDS011;28407;51.830;5.684;2023-08-06T07:55:01;10.52;;;5.35;;
42754;SDS011;28407;51.830;5.684;2023-08-06T07:57:04;6.10;;;5.40;;
42754;SDS011;28407;51.830;5.684;2023-08-06T07:59:05;7.13;;;6.00;;
42754;SDS011;28407;51.830;5.684;2023-08-06T08:01:06;5.50;;;4.75;;
42754;SDS011;28407;51.830;5.684;2023-08-06T08:03:07;8.68;;;5.72;;
42754;SDS011;28407;51.830;5.684;2023-08-06T08:05:08;6.20;;;5.38;;
42754;SDS011;28407;51.830;5.684;2023-08-06T08:07:09;6.22;;;5.47;;
42754;SDS011;28407;51.830;5.684;2023-08-06T08:09:11;7.80;;;6.45;;
42754;SDS011;28407;51.830;5.684;2023-08-06T08:11:13;7.53;;;6.65;;
42754;SDS011;28407;51.830;5.684;2023-08-06T08:13:16;7.35;;;6.40;;
42754;SDS011;28407;51.830;5.684;2023-08-06T08:15:16;8.27;;;5.97;;
42754;SDS011;28407;51.830;5.684;2023-08-06T08:17:18;7.07;;;6.32;;
42754;SDS011;28407;51.830;5.684;2023-08-06T08:19:18;8.18;;;6.18;;
42754;SDS011;28407;51.830;5.684;2023-08-06T08:21:20;8.27;;;6.93;;
42754;SDS011;28407;51.830;5.684;2023-08-06T08:23:20;7.43;;;6.63;;
42754;SDS011;28407;51.830;5.684;2023-08-06T08:25:21;7.40;;;6.60;;
42754;SDS011;28407;51.830;5.684;2023-08-06T08:27:21;11.30;;;7.93;;
42754;SDS011;28407;51.830;5.684;2023-08-06T08:29:22;8.63;;;7.03;;
42754;SDS011;28407;51.830;5.684;2023-08-06T08:31:23;8.25;;;6.53;;
42754;SDS011;28407;51.830;5.684;2023-08-06T08:33:24;6.75;;;5.95;;
42754;SDS011;28407;51.830;5.684;2023-08-06T08:35:24;7.05;;;5.72;;
42754;SDS011;28407;51.830;5.684;2023-08-06T08:37:25;5.40;;;4.68;;
42754;SDS011;28407;51.830;5.684;2023-08-06T08:39:26;5.95;;;4.05;;
42754;SDS011;28407;51.830;5.684;2023-08-06T08:41:29;5.25;;;3.45;;
42754;SDS011;28407;51.830;5.684;2023-08-06T08:43:31;3.83;;;2.97;;
42754;SDS011;28407;51.830;5.684;2023-08-06T08:45:32;3.33;;;2.33;;
42754;SDS011;28407;51.830;5.684;2023-08-06T08:47:42;2.80;;;1.90;;
42754;SDS011;28407;51.830;5.684;2023-08-06T08:49:43;2.83;;;1.55;;
42754;SDS011;28407;51.830;5.684;2023-08-06T08:51:44;2.00;;;1.73;;
42754;SDS011;28407;51.830;5.684;2023-08-06T08:53:46;2.35;;;1.05;;
42754;SDS011;28407;51.830;5.684;2023-08-06T08:57:49;2.15;;;1.27;;
42754;SDS011;28407;51.830;5.684;2023-08-06T08:59:50;1.52;;;1.00;;
42754;SDS011;28407;51.830;5.684;2023-08-06T09:01:50;1.50;;;0.90;;
42754;SDS011;28407;51.830;5.684;2023-08-06T09:03:51;1.27;;;0.90;;
42754;SDS011;28407;51.830;5.684;2023-08-06T09:07:55;1.58;;;0.80;;
42754;SDS011;28407;51.830;5.684;2023-08-06T09:09:58;1.73;;;1.00;;
42754;SDS011;28407;51.830;5.684;2023-08-06T09:12:06;3.47;;;1.13;;
42754;SDS011;28407;51.830;5.684;2023-08-06T09:14:12;2.53;;;1.00;;
42754;SDS011;28407;51.830;5.684;2023-08-06T09:16:13;1.73;;;1.20;;
42754;SDS011;28407;51.830;5.684;2023-08-06T09:18:13;1.33;;;0.90;;
42754;SDS011;28407;51.830;5.684;2023-08-06T09:20:14;1.50;;;1.05;;
42754;SDS011;28407;51.830;5.684;2023-08-06T09:22:16;1.88;;;1.30;;
42754;SDS011;28407;51.830;5.684;2023-08-06T09:24:17;1.05;;;0.95;;
42754;SDS011;28407;51.830;5.684;2023-08-06T09:26:17;3.15;;;1.10;;
42754;SDS011;28407;51.830;5.684;2023-08-06T09:28:18;1.50;;;1.20;;
42754;SDS011;28407;51.830;5.684;2023-08-06T09:30:29;3.72;;;1.10;;
42754;SDS011;28407;51.830;5.684;2023-08-06T09:32:46;1.35;;;1.17;;
42754;SDS011;28407;51.830;5.684;2023-08-06T09:34:47;1.65;;;1.13;;
42754;SDS011;28407;51.830;5.684;2023-08-06T09:36:56;1.58;;;1.10;;
42754;SDS011;28407;51.830;5.684;2023-08-06T09:38:57;1.83;;;1.10;;
42754;SDS011;28407;51.830;5.684;2023-08-06T09:40:57;1.25;;;1.00;;
42754;SDS011;28407;51.830;5.684;2023-08-06T09:42:58;1.92;;;1.00;;
42754;SDS011;28407;51.830;5.684;2023-08-06T09:45:06;1.88;;;1.05;;
42754;SDS011;28407;51.830;5.684;2023-08-06T09:47:06;1.52;;;1.13;;
42754;SDS011;28407;51.830;5.684;2023-08-06T09:49:07;1.70;;;1.30;;
42754;SDS011;28407;51.830;5.684;2023-08-06T09:51:09;1.83;;;1.30;;
42754;SDS011;28407;51.830;5.684;2023-08-06T09:53:13;2.20;;;1.20;;
42754;SDS011;28407;51.830;5.684;2023-08-06T09:55:14;1.85;;;1.02;;
42754;SDS011;28407;51.830;5.684;2023-08-06T09:57:15;2.08;;;1.13;;
42754;SDS011;28407;51.830;5.684;2023-08-06T09:59:16;2.08;;;1.08;;
42754;SDS011;28407;51.830;5.684;2023-08-06T10:01:17;2.38;;;1.25;;
42754;SDS011;28407;51.830;5.684;2023-08-06T10:03:19;3.00;;;1.40;;
42754;SDS011;28407;51.830;5.684;2023-08-06T10:07:22;2.05;;;1.30;;
42754;SDS011;28407;51.830;5.684;2023-08-06T10:09:24;2.30;;;1.40;;
42754;SDS011;28407;51.830;5.684;2023-08-06T10:11:24;2.53;;;1.27;;
42754;SDS011;28407;51.830;5.684;2023-08-06T10:13:28;1.85;;;1.50;;
42754;SDS011;28407;51.830;5.684;2023-08-06T10:15:31;2.08;;;1.25;;
42754;SDS011;28407;51.830;5.684;2023-08-06T10:17:33;1.70;;;1.40;;
42754;SDS011;28407;51.830;5.684;2023-08-06T10:19:34;9.07;;;1.80;;
42754;SDS011;28407;51.830;5.684;2023-08-06T10:21:35;3.50;;;1.50;;
42754;SDS011;28407;51.830;5.684;2023-08-06T10:23:40;2.40;;;1.60;;
42754;SDS011;28407;51.830;5.684;2023-08-06T10:25:41;2.50;;;1.42;;
42754;SDS011;28407;51.830;5.684;2023-08-06T10:29:49;3.40;;;1.85;;
42754;SDS011;28407;51.830;5.684;2023-08-06T10:31:58;2.60;;;1.55;;
42754;SDS011;28407;51.830;5.684;2023-08-06T10:34:02;3.38;;;1.55;;
42754;SDS011;28407;51.830;5.684;2023-08-06T10:36:03;1.90;;;1.50;;
42754;SDS011;28407;51.830;5.684;2023-08-06T10:38:10;3.13;;;1.60;;
42754;SDS011;28407;51.830;5.684;2023-08-06T10:40:12;1.83;;;1.30;;
42754;SDS011;28407;51.830;5.684;2023-08-06T10:42:30;2.03;;;1.60;;
42754;SDS011;28407;51.830;5.684;2023-08-06T10:44:31;2.90;;;1.67;;
42754;SDS011;28407;51.830;5.684;2023-08-06T10:46:32;3.53;;;1.73;;
42754;SDS011;28407;51.830;5.684;2023-08-06T10:50:40;2.30;;;1.60;;
42754;SDS011;28407;51.830;5.684;2023-08-06T10:52:41;3.10;;;1.65;;
42754;SDS011;28407;51.830;5.684;2023-08-06T10:54:41;2.78;;;1.40;;
42754;SDS011;28407;51.830;5.684;2023-08-06T10:56:42;3.13;;;1.65;;
42754;SDS011;28407;51.830;5.684;2023-08-06T10:58:45;2.67;;;1.52;;
42754;SDS011;28407;51.830;5.684;2023-08-06T11:00:46;3.10;;;1.65;;
42754;SDS011;28407;51.830;5.684;2023-08-06T11:02:47;2.47;;;1.58;;
42754;SDS011;28407;51.830;5.684;2023-08-06T11:06:52;2.25;;;1.35;;
42754;SDS011;28407;51.830;5.684;2023-08-06T11:08:54;2.67;;;1.70;;
42754;SDS011;28407;51.830;5.684;2023-08-06T11:10:55;3.30;;;1.92;;
42754;SDS011;28407;51.830;5.684;2023-08-06T11:13:07;2.47;;;1.83;;
42754;SDS011;28407;51.830;5.684;2023-08-06T11:15:08;2.25;;;1.73;;
42754;SDS011;28407;51.830;5.684;2023-08-06T11:17:09;2.50;;;1.42;;
42754;SDS011;28407;51.830;5.684;2023-08-06T11:19:10;2.35;;;1.45;;
42754;SDS011;28407;51.830;5.684;2023-08-06T11:21:10;3.00;;;1.38;;
42754;SDS011;28407;51.830;5.684;2023-08-06T11:23:12;3.13;;;1.67;;
42754;SDS011;28407;51.830;5.684;2023-08-06T11:25:14;2.15;;;1.58;;
42754;SDS011;28407;51.830;5.684;2023-08-06T11:27:15;2.25;;;1.27;;
42754;SDS011;28407;51.830;5.684;2023-08-06T11:31:20;3.05;;;1.77;;
42754;SDS011;28407;51.830;5.684;2023-08-06T11:35:25;4.82;;;1.80;;
42754;SDS011;28407;51.830;5.684;2023-08-06T11:37:26;2.63;;;1.42;;
42754;SDS011;28407;51.830;5.684;2023-08-06T11:39:27;2.40;;;1.48;;
42754;SDS011;28407;51.830;5.684;2023-08-06T11:41:28;3.05;;;1.42;;
42754;SDS011;28407;51.830;5.684;2023-08-06T11:43:30;1.60;;;1.23;;
42754;SDS011;28407;51.830;5.684;2023-08-06T11:45:31;3.65;;;2.05;;
42754;SDS011;28407;51.830;5.684;2023-08-06T11:47:37;2.80;;;1.63;;
42754;SDS011;28407;51.830;5.684;2023-08-06T11:49:41;2.45;;;1.40;;
42754;SDS011;28407;51.830;5.684;2023-08-06T11:51:49;2.60;;;1.27;;
42754;SDS011;28407;51.830;5.684;2023-08-06T11:53:50;3.92;;;1.40;;
42754;SDS011;28407;51.830;5.684;2023-08-06T11:55:51;1.98;;;1.50;;
42754;SDS011;28407;51.830;5.684;2023-08-06T11:57:52;2.95;;;1.65;;
42754;SDS011;28407;51.830;5.684;2023-08-06T11:59:53;2.53;;;1.25;;
42754;SDS011;28407;51.830;5.684;2023-08-06T12:01:53;3.40;;;1.52;;
42754;SDS011;28407;51.830;5.684;2023-08-06T12:04:00;2.80;;;1.30;;
42754;SDS011;28407;51.830;5.684;2023-08-06T12:06:00;1.85;;;1.23;;
42754;SDS011;28407;51.830;5.684;2023-08-06T12:08:02;1.95;;;1.20;;
42754;SDS011;28407;51.830;5.684;2023-08-06T12:10:03;2.10;;;1.20;;
42754;SDS011;28407;51.830;5.684;2023-08-06T12:12:05;3.53;;;1.20;;
42754;SDS011;28407;51.830;5.684;2023-08-06T12:14:05;2.20;;;1.38;;
42754;SDS011;28407;51.830;5.684;2023-08-06T12:16:06;1.92;;;1.10;;
42754;SDS011;28407;51.830;5.684;2023-08-06T12:18:07;3.10;;;1.58;;
42754;SDS011;28407;51.830;5.684;2023-08-06T12:20:08;4.13;;;1.23;;
42754;SDS011;28407;51.830;5.684;2023-08-06T12:22:09;3.63;;;1.48;;
42754;SDS011;28407;51.830;5.684;2023-08-06T12:24:10;3.72;;;1.27;;
42754;SDS011;28407;51.830;5.684;2023-08-06T12:26:11;3.27;;;1.40;;
42754;SDS011;28407;51.830;5.684;2023-08-06T12:28:12;1.95;;;1.08;;
42754;SDS011;28407;51.830;5.684;2023-08-06T12:30:13;3.37;;;1.33;;
42754;SDS011;28407;51.830;5.684;2023-08-06T12:32:14;1.95;;;1.08;;
42754;SDS011;28407;51.830;5.684;2023-08-06T12:34:15;2.55;;;1.17;;
42754;SDS011;28407;51.830;5.684;2023-08-06T12:36:16;2.33;;;1.25;;
42754;SDS011;28407;51.830;5.684;2023-08-06T12:38:16;2.67;;;1.30;;
42754;SDS011;28407;51.830;5.684;2023-08-06T12:40:17;2.05;;;1.40;;